createdAt,value
2023-02-11T00:00:20.768Z,39.77
2023-02-11T00:02:24.994Z,36.57
2023-02-11T00:04:29.152Z,38.73
2023-02-11T00:06:32.988Z,40.03
2023-02-11T00:08:35.528Z,38.50
2023-02-11T00:10:37.292Z,39.60
2023-02-11T00:12:43.097Z,38.33
2023-02-11T00:14:47.364Z,36.53
2023-02-11T00:16:49.187Z,34.50
2023-02-11T00:18:52.919Z,42.10
2023-02-11T00:20:54.631Z,41.57
2023-02-11T00:22:56.379Z,39.70
2023-02-11T00:24:58.116Z,37.97
2023-02-11T00:27:00.014Z,38.27
2023-02-11T00:29:05.055Z,41.73
2023-02-11T00:31:08.140Z,36.73
2023-02-11T00:33:13.334Z,38.27
2023-02-11T00:35:15.319Z,39.20
2023-02-11T00:37:17.025Z,39.10
2023-02-11T00:39:18.798Z,39.30
2023-02-11T00:41:24.137Z,41.33
2023-02-11T00:43:28.676Z,39.63
2023-02-11T00:45:30.734Z,38.20
2023-02-11T00:47:32.389Z,37.67
2023-02-11T00:49:34.798Z,36.83
2023-02-11T00:51:36.564Z,39.20
2023-02-11T00:53:40.278Z,39.40
2023-02-11T00:55:42.255Z,39.57
2023-02-11T00:57:44.043Z,39.03
2023-02-11T00:59:45.776Z,43.97
2023-02-11T01:01:47.593Z,40.53
2023-02-11T01:03:49.652Z,38.90
2023-02-11T01:05:51.962Z,39.43
2023-02-11T01:07:53.916Z,37.67
2023-02-11T01:09:59.808Z,40.83
2023-02-11T01:12:04.773Z,36.17
2023-02-11T01:14:07.545Z,36.03
2023-02-11T01:16:11.260Z,39.30
2023-02-11T01:18:13.034Z,39.60
2023-02-11T01:20:23.146Z,37.37
2023-02-11T01:22:24.960Z,38.70
2023-02-11T01:24:26.821Z,41.93
2023-02-11T01:26:30.751Z,42.43
2023-02-11T01:28:37.521Z,40.73
2023-02-11T01:30:39.752Z,41.10
2023-02-11T01:32:41.630Z,41.17
2023-02-11T01:34:43.724Z,35.37
2023-02-11T01:36:47.396Z,35.90
2023-02-11T01:38:49.884Z,35.27
2023-02-11T01:40:54.611Z,38.77
2023-02-11T01:42:56.312Z,37.97
2023-02-11T01:44:58.269Z,38.80
2023-02-11T01:47:04.592Z,34.87
2023-02-11T01:49:10.628Z,35.40
2023-02-11T01:51:26.571Z,37.30
2023-02-11T01:53:48.350Z,38.20
2023-02-11T01:56:10.663Z,36.73
2023-02-11T01:58:15.298Z,36.43
2023-02-11T02:00:36.083Z,40.33
2023-02-11T02:02:54.771Z,37.87
2023-02-11T02:05:06.028Z,39.33
2023-02-11T02:07:17.402Z,35.63
2023-02-11T02:09:29.228Z,35.47
2023-02-11T02:11:30.922Z,37.17
2023-02-11T02:13:35.878Z,38.57
2023-02-11T02:15:41.946Z,37.70
2023-02-11T02:17:55.108Z,34.23
2023-02-11T02:20:52.559Z,36.60
2023-02-11T02:23:15.461Z,36.90
2023-02-11T02:25:56.313Z,35.67
2023-02-11T02:28:38.652Z,35.20
2023-02-11T02:31:20.431Z,37.00
2023-02-11T02:33:30.591Z,38.93
2023-02-11T02:36:13.700Z,41.50
2023-02-11T02:38:48.904Z,35.33
2023-02-11T02:41:16.854Z,33.53
2023-02-11T02:43:22.413Z,37.90
2023-02-11T02:45:24.235Z,35.60
2023-02-11T02:47:25.953Z,38.83
2023-02-11T02:49:27.612Z,38.90
2023-02-11T02:51:37.369Z,37.37
2023-02-11T02:54:09.864Z,36.93
2023-02-11T02:56:27.494Z,35.87
2023-02-11T02:59:09.412Z,36.53
2023-02-11T03:01:31.178Z,37.80
2023-02-11T03:03:38.683Z,33.43
2023-02-11T03:05:52.790Z,38.17
2023-02-11T03:08:05.572Z,37.67
2023-02-11T03:10:40.959Z,36.03
2023-02-11T03:12:48.676Z,36.03
2023-02-11T03:14:52.833Z,36.23
2023-02-11T03:16:57.465Z,36.37
2023-02-11T03:19:45.794Z,36.87
2023-02-11T03:21:49.845Z,36.37
2023-02-11T03:24:05.637Z,35.23
2023-02-11T03:26:13.260Z,37.10
2023-02-11T03:28:24.293Z,34.30
2023-02-11T03:30:36.324Z,36.40
2023-02-11T03:32:51.928Z,31.33
2023-02-11T03:35:17.862Z,37.60
2023-02-11T03:37:35.069Z,35.20
2023-02-11T03:39:46.791Z,33.90
2023-02-11T03:41:51.426Z,36.80
2023-02-11T03:43:57.489Z,35.87
2023-02-11T03:46:03.186Z,33.63
2023-02-11T03:48:12.661Z,37.33
2023-02-11T03:50:17.687Z,34.73
2023-02-11T03:52:22.651Z,36.37
2023-02-11T03:54:30.111Z,36.00
2023-02-11T03:56:37.774Z,40.17
2023-02-11T03:58:45.218Z,32.03
2023-02-11T04:00:49.393Z,36.53
2023-02-11T04:02:53.712Z,33.20
2023-02-11T04:04:56.037Z,34.10
2023-02-11T04:06:59.819Z,30.90
2023-02-11T04:09:01.951Z,34.77
2023-02-11T04:11:03.778Z,33.93
2023-02-11T04:13:05.436Z,33.47
2023-02-11T04:15:07.916Z,36.00
2023-02-11T04:17:09.604Z,34.37
2023-02-11T04:19:13.803Z,36.60
2023-02-11T04:21:15.608Z,33.00
2023-02-11T04:23:17.372Z,35.43
2023-02-11T04:25:20.266Z,33.27
2023-02-11T04:27:24.217Z,37.77
2023-02-11T04:29:25.927Z,36.87
2023-02-11T04:31:27.759Z,35.50
2023-02-11T04:33:30.472Z,33.20
2023-02-11T04:35:32.140Z,35.17
2023-02-11T04:37:33.989Z,32.83
2023-02-11T04:39:35.770Z,32.23
2023-02-11T04:41:37.469Z,31.93
2023-02-11T04:43:39.215Z,31.87
2023-02-11T04:45:42.372Z,32.03
2023-02-11T04:47:44.101Z,35.00
2023-02-11T04:49:45.781Z,34.83
2023-02-11T04:51:49.363Z,34.47
2023-02-11T04:53:54.083Z,31.30
2023-02-11T04:55:55.836Z,33.33
2023-02-11T04:57:59.740Z,31.10
2023-02-11T05:00:01.396Z,31.57
2023-02-11T05:02:04.063Z,30.57
2023-02-11T05:04:10.021Z,31.53
2023-02-11T05:06:11.957Z,32.90
2023-02-11T05:08:13.663Z,32.27
2023-02-11T05:10:15.516Z,37.33
2023-02-11T05:12:17.338Z,32.23
2023-02-11T05:14:19.288Z,32.90
2023-02-11T05:16:21.219Z,33.93
2023-02-11T05:18:24.714Z,33.73
2023-02-11T05:20:26.690Z,30.93
2023-02-11T05:22:28.377Z,33.13
2023-02-11T05:24:33.598Z,34.10
2023-02-11T05:26:35.279Z,35.47
2023-02-11T05:28:37.519Z,32.70
2023-02-11T05:30:39.773Z,33.57
2023-02-11T05:32:41.618Z,35.83
2023-02-11T05:34:43.327Z,36.77
2023-02-11T05:36:50.249Z,38.07
2023-02-11T05:38:51.975Z,33.47
2023-02-11T05:40:53.852Z,35.47
2023-02-11T05:42:55.540Z,38.87
2023-02-11T05:45:02.153Z,34.83
2023-02-11T05:47:03.899Z,31.53
2023-02-11T05:49:05.816Z,35.23
2023-02-11T05:51:08.796Z,32.23
2023-02-11T05:53:10.736Z,35.83
2023-02-11T05:55:14.946Z,35.03
2023-02-11T05:57:18.251Z,34.13
2023-02-11T05:59:20.105Z,39.57
2023-02-11T06:01:21.818Z,39.33
2023-02-11T06:03:26.334Z,37.60
2023-02-11T06:05:28.061Z,36.10
2023-02-11T06:07:29.740Z,38.13
2023-02-11T06:09:31.436Z,37.23
2023-02-11T06:11:33.180Z,36.67
2023-02-11T06:13:35.328Z,37.47
2023-02-11T06:15:37.151Z,36.30
2023-02-11T06:17:38.885Z,38.83
2023-02-11T06:19:40.589Z,35.90
2023-02-11T06:21:44.248Z,36.77
2023-02-11T06:23:46.279Z,35.33
2023-02-11T06:25:48.265Z,37.83
2023-02-11T06:27:50.148Z,35.53
2023-02-11T06:29:52.769Z,36.00
2023-02-11T06:31:54.610Z,33.27
2023-02-11T06:33:59.163Z,35.83
2023-02-11T06:36:01.751Z,39.03
2023-02-11T06:38:03.659Z,37.70
2023-02-11T06:40:05.764Z,36.13
2023-02-11T06:42:08.037Z,40.03
2023-02-11T06:44:10.017Z,39.43
2023-02-11T06:46:15.303Z,38.47
2023-02-11T06:48:17.024Z,37.00
2023-02-11T06:50:18.765Z,37.13
2023-02-11T06:52:20.458Z,36.80
2023-02-11T06:54:22.341Z,34.73
2023-02-11T06:56:27.243Z,36.00
2023-02-11T06:58:28.979Z,35.17
2023-02-11T07:00:31.065Z,37.47
2023-02-11T07:02:32.952Z,37.70
2023-02-11T07:04:35.004Z,37.53
2023-02-11T07:06:37.521Z,35.73
2023-02-11T07:08:42.931Z,37.17
2023-02-11T07:10:44.627Z,40.60
2023-02-11T07:12:46.397Z,36.60
2023-02-11T07:14:48.431Z,36.53
2023-02-11T07:16:52.236Z,37.40
2023-02-11T07:18:54.285Z,36.17
2023-02-11T07:20:55.975Z,37.17
2023-02-11T07:22:58.514Z,36.63
2023-02-11T07:25:00.271Z,38.63
2023-02-11T07:27:02.021Z,35.73
2023-02-11T07:29:04.392Z,39.40
2023-02-11T07:31:11.561Z,37.10
2023-02-11T07:33:13.440Z,37.53
2023-02-11T07:35:15.182Z,37.00
2023-02-11T07:37:16.875Z,37.70
2023-02-11T07:39:20.104Z,36.57
2023-02-11T07:41:24.163Z,38.33
2023-02-11T07:43:25.830Z,35.77
2023-02-11T07:45:27.561Z,36.07
2023-02-11T07:47:29.293Z,35.23
2023-02-11T07:49:33.191Z,37.07
2023-02-11T07:51:34.933Z,39.77
2023-02-11T07:53:37.108Z,38.40
2023-02-11T07:55:38.802Z,38.57
2023-02-11T07:57:41.181Z,37.47
2023-02-11T07:59:42.898Z,37.33
2023-02-11T08:01:44.762Z,37.97
2023-02-11T08:03:49.284Z,35.90
2023-02-11T08:05:52.392Z,38.07
2023-02-11T08:07:54.750Z,36.87
2023-02-11T08:09:56.902Z,38.93
2023-02-11T08:11:58.654Z,37.83
2023-02-11T08:14:00.382Z,39.20
2023-02-11T08:16:06.956Z,39.93
2023-02-11T08:18:09.840Z,36.90
2023-02-11T08:20:11.880Z,38.80
2023-02-11T08:22:13.659Z,38.93
2023-02-11T08:24:18.458Z,37.97
2023-02-11T08:26:22.673Z,38.57
2023-02-11T08:28:24.351Z,37.30
2023-02-11T08:30:27.683Z,39.30
2023-02-11T08:32:34.123Z,37.30
2023-02-11T08:34:39.782Z,39.63
2023-02-11T08:36:42.918Z,36.27
2023-02-11T08:38:45.234Z,36.20
2023-02-11T08:40:50.556Z,35.77
2023-02-11T08:42:54.860Z,38.13
2023-02-11T08:44:56.556Z,38.37
2023-02-11T08:46:58.664Z,38.57
2023-02-11T08:49:00.530Z,37.23
2023-02-11T08:51:10.144Z,40.00
2023-02-11T08:53:12.017Z,40.63
2023-02-11T08:55:16.043Z,40.60
2023-02-11T08:57:17.892Z,43.33
2023-02-11T08:59:19.686Z,35.97
2023-02-11T09:01:26.726Z,40.23
2023-02-11T09:03:29.598Z,39.10
2023-02-11T09:05:31.258Z,38.60
2023-02-11T09:07:32.976Z,40.00
2023-02-11T09:09:35.287Z,41.00
2023-02-11T09:11:37.020Z,38.37
2023-02-11T09:13:40.289Z,40.27
2023-02-11T09:15:45.712Z,40.10
2023-02-11T09:17:48.638Z,41.03
2023-02-11T09:19:50.374Z,39.87
2023-02-11T09:21:52.129Z,44.50
2023-02-11T09:23:56.647Z,43.83
2023-02-11T09:25:58.347Z,39.63
2023-02-11T09:28:00.624Z,43.10
2023-02-11T09:30:02.337Z,40.33
2023-02-11T09:32:04.394Z,43.03
2023-02-11T09:34:11.015Z,44.00
2023-02-11T09:36:13.286Z,44.27
2023-02-11T09:38:16.160Z,41.97
2023-02-11T09:40:19.897Z,40.73
2023-02-11T09:42:51.294Z,41.10
2023-02-11T09:44:53.185Z,39.00
2023-02-11T09:47:01.462Z,38.03
2023-02-11T09:49:04.984Z,38.43
2023-02-11T09:51:37.046Z,39.00
2023-02-11T09:53:42.870Z,37.67
2023-02-11T09:55:50.501Z,36.73
2023-02-11T09:57:52.681Z,35.33
2023-02-11T09:59:55.407Z,39.00
2023-02-11T10:02:25.236Z,35.47
2023-02-11T10:05:05.987Z,33.33
2023-02-11T10:07:37.715Z,34.13
2023-02-11T10:10:04.566Z,33.07
2023-02-11T10:12:28.542Z,36.53
2023-02-11T10:14:41.956Z,33.33
2023-02-11T10:17:31.282Z,33.57
2023-02-11T10:19:48.007Z,36.53
2023-02-11T10:22:14.346Z,39.30
2023-02-11T10:24:20.152Z,33.87
2023-02-11T10:26:23.253Z,35.77
2023-02-11T10:28:39.430Z,32.90
2023-02-11T10:31:05.808Z,34.50
2023-02-11T10:33:14.110Z,32.93
2023-02-11T10:35:18.427Z,31.83
2023-02-11T10:37:22.405Z,30.37
2023-02-11T10:39:27.587Z,32.03
2023-02-11T10:41:34.366Z,34.97
2023-02-11T10:43:36.996Z,35.97
2023-02-11T10:45:43.274Z,38.43
2023-02-11T10:47:44.967Z,37.37
2023-02-11T10:49:49.314Z,35.17
2023-02-11T10:52:08.111Z,37.87
2023-02-11T10:54:24.331Z,32.87
2023-02-11T10:56:28.112Z,33.13
2023-02-11T10:58:46.808Z,31.93
2023-02-11T11:00:54.221Z,29.77
2023-02-11T11:02:59.875Z,34.63
2023-02-11T11:05:29.228Z,32.00
2023-02-11T11:07:33.419Z,32.57
2023-02-11T11:09:53.696Z,31.57
2023-02-11T11:11:56.472Z,33.60
2023-02-11T11:14:00.919Z,36.87
2023-02-11T11:16:14.722Z,35.77
2023-02-11T11:18:23.324Z,32.97
2023-02-11T11:20:28.202Z,33.80
2023-02-11T11:22:30.015Z,33.07
2023-02-11T11:24:39.354Z,30.83
2023-02-11T11:26:44.451Z,33.83
2023-02-11T11:29:00.038Z,32.80
2023-02-11T11:31:05.226Z,34.60
2023-02-11T11:33:28.909Z,37.40
2023-02-11T11:35:33.103Z,33.70
2023-02-11T11:37:41.807Z,36.40
2023-02-11T11:40:09.118Z,34.87
2023-02-11T11:42:27.720Z,34.33
2023-02-11T11:44:41.493Z,35.13
2023-02-11T11:46:46.271Z,36.30
2023-02-11T11:48:51.543Z,36.03
2023-02-11T11:50:57.391Z,34.43
2023-02-11T11:53:10.883Z,36.00
2023-02-11T11:55:27.425Z,37.87
2023-02-11T11:57:30.607Z,36.60
2023-02-11T11:59:32.484Z,34.97
2023-02-11T12:02:18.787Z,35.63
2023-02-11T12:04:43.066Z,37.93
2023-02-11T12:07:16.423Z,36.37
2023-02-11T12:09:39.529Z,35.87
2023-02-11T12:12:12.348Z,34.37
2023-02-11T12:14:49.340Z,36.53
2023-02-11T12:16:59.340Z,35.87
2023-02-11T12:19:19.286Z,34.00
2023-02-11T12:21:50.869Z,36.90
2023-02-11T12:24:18.950Z,36.63
2023-02-11T12:26:24.175Z,38.60
2023-02-11T12:28:42.018Z,38.80
2023-02-11T12:30:55.575Z,35.40
2023-02-11T12:33:10.605Z,40.90
2023-02-11T12:35:20.062Z,35.63
2023-02-11T12:37:41.763Z,37.70
2023-02-11T12:39:56.742Z,39.67
2023-02-11T12:42:43.653Z,39.03
2023-02-11T12:45:08.863Z,34.77
2023-02-11T12:47:30.183Z,36.77
2023-02-11T12:49:58.171Z,33.17
2023-02-11T12:52:31.750Z,40.80
2023-02-11T12:54:43.725Z,38.93
2023-02-11T12:57:11.058Z,38.37
2023-02-11T12:59:33.156Z,33.27
2023-02-11T13:01:40.309Z,35.80
2023-02-11T13:04:09.229Z,37.73
2023-02-11T13:06:21.984Z,37.10
2023-02-11T13:08:36.783Z,36.50
2023-02-11T13:10:42.065Z,40.70
2023-02-11T13:13:06.713Z,41.93
2023-02-11T13:15:14.203Z,33.83
2023-02-11T13:17:27.422Z,36.83
2023-02-11T13:19:48.485Z,36.30
2023-02-11T13:22:20.424Z,40.03
2023-02-11T13:24:41.820Z,35.23
2023-02-11T13:27:14.010Z,38.27
2023-02-11T13:29:23.892Z,33.93
2023-02-11T13:31:27.612Z,33.43
2023-02-11T13:33:44.847Z,32.63
2023-02-11T13:35:58.616Z,35.07
2023-02-11T13:38:02.693Z,35.50
2023-02-11T13:40:22.449Z,35.70
2023-02-11T13:42:25.788Z,37.57
2023-02-11T13:44:28.089Z,36.53
2023-02-11T13:46:53.698Z,32.83
2023-02-11T13:48:55.561Z,34.00
2023-02-11T13:51:01.862Z,34.43
2023-02-11T13:53:08.381Z,36.53
2023-02-11T13:55:22.738Z,34.27
2023-02-11T13:57:31.666Z,34.77
2023-02-11T13:59:35.678Z,34.70
2023-02-11T14:02:39.234Z,35.43
2023-02-11T14:05:21.585Z,34.23
2023-02-11T14:07:52.304Z,36.33
2023-02-11T14:09:56.893Z,40.40
2023-02-11T14:12:26.150Z,39.13
2023-02-11T14:14:36.008Z,37.47
2023-02-11T14:17:06.675Z,34.77
2023-02-11T14:19:13.677Z,36.27
2023-02-11T14:21:21.951Z,37.23
2023-02-11T14:23:27.340Z,38.53
2023-02-11T14:25:29.795Z,37.80
2023-02-11T14:27:35.022Z,32.73
2023-02-11T14:29:51.106Z,33.87
2023-02-11T14:32:11.447Z,35.13
2023-02-11T14:34:32.400Z,34.47
2023-02-11T14:36:59.191Z,38.73
2023-02-11T14:39:16.566Z,34.10
2023-02-11T14:41:36.242Z,33.90
2023-02-11T14:43:43.614Z,34.17
2023-02-11T14:45:50.305Z,33.97
2023-02-11T14:48:03.303Z,30.33
2023-02-11T14:50:12.207Z,30.33
2023-02-11T14:52:27.436Z,32.73
2023-02-11T14:54:29.888Z,32.87
2023-02-11T14:56:34.357Z,35.30
2023-02-11T14:58:36.175Z,34.93
2023-02-11T15:00:51.476Z,35.27
2023-02-11T15:02:56.770Z,36.67
2023-02-11T15:05:34.667Z,37.60
2023-02-11T15:07:36.464Z,33.70
2023-02-11T15:09:47.011Z,33.73
2023-02-11T15:11:50.813Z,32.10
2023-02-11T15:13:55.370Z,33.57
2023-02-11T15:16:07.363Z,35.17
2023-02-11T15:18:22.607Z,33.00
2023-02-11T15:20:29.657Z,36.87
2023-02-11T15:22:36.631Z,34.57
2023-02-11T15:24:39.942Z,37.50
2023-02-11T15:26:41.647Z,37.13
2023-02-11T15:28:53.532Z,38.73
2023-02-11T15:31:16.363Z,39.73
2023-02-11T15:33:22.975Z,36.03
2023-02-11T15:35:28.936Z,33.20
2023-02-11T15:37:30.813Z,33.47
2023-02-11T15:39:38.149Z,35.60
2023-02-11T15:41:39.818Z,36.17
2023-02-11T15:43:50.905Z,37.93
2023-02-11T15:45:59.992Z,35.50
2023-02-11T15:48:19.207Z,45.03
2023-02-11T15:50:24.448Z,42.27
2023-02-11T15:52:27.846Z,33.43
2023-02-11T15:54:32.005Z,33.23
2023-02-11T15:56:43.285Z,36.83
2023-02-11T15:58:47.754Z,37.70
2023-02-11T16:00:54.554Z,33.20
2023-02-11T16:02:56.296Z,35.87
2023-02-11T16:05:00.972Z,42.53
2023-02-11T16:07:03.117Z,38.50
2023-02-11T16:09:11.059Z,37.90
2023-02-11T16:11:33.976Z,36.43
2023-02-11T16:13:49.259Z,36.60
2023-02-11T16:16:02.411Z,37.30
2023-02-11T16:18:39.791Z,37.23
2023-02-11T16:20:47.496Z,40.37
2023-02-11T16:22:49.219Z,36.83
2023-02-11T16:24:55.076Z,36.03
2023-02-11T16:27:02.034Z,41.13
2023-02-11T16:29:31.093Z,40.87
2023-02-11T16:31:34.744Z,40.23
2023-02-11T16:33:38.524Z,34.87
2023-02-11T16:35:47.430Z,39.00
2023-02-11T16:37:49.117Z,36.80
2023-02-11T16:39:54.624Z,37.80
2023-02-11T16:41:57.188Z,35.60
2023-02-11T16:43:58.845Z,38.50
2023-02-11T16:46:00.681Z,40.70
2023-02-11T16:48:02.439Z,38.07
2023-02-11T16:50:07.770Z,39.07
2023-02-11T16:52:14.292Z,42.97
2023-02-11T16:54:17.243Z,37.63
2023-02-11T16:56:20.596Z,40.80
2023-02-11T16:58:22.350Z,38.63
2023-02-11T17:00:25.551Z,40.80
2023-02-11T17:02:31.147Z,39.40
2023-02-11T17:04:33.627Z,37.30
2023-02-11T17:06:35.363Z,41.77
2023-02-11T17:08:40.117Z,38.37
2023-02-11T17:10:44.343Z,36.73
2023-02-11T17:12:46.625Z,38.53
2023-02-11T17:14:48.304Z,38.30
2023-02-11T17:16:50.092Z,35.40
2023-02-11T17:18:54.754Z,39.97
2023-02-11T17:20:56.510Z,37.57
2023-02-11T17:22:58.201Z,38.17
2023-02-11T17:25:00.106Z,39.50
2023-02-11T17:27:01.785Z,38.43
2023-02-11T17:29:08.286Z,34.93
2023-02-11T17:31:11.668Z,34.07
2023-02-11T17:33:16.066Z,34.77
2023-02-11T17:35:18.154Z,38.67
2023-02-11T17:37:19.982Z,38.33
2023-02-11T17:39:23.420Z,40.67
2023-02-11T17:41:25.853Z,39.77
2023-02-11T17:43:29.091Z,41.07
2023-02-11T17:45:33.339Z,36.37
2023-02-11T17:47:37.419Z,36.13
2023-02-11T17:49:39.360Z,40.33
2023-02-11T17:51:41.188Z,33.83
2023-02-11T17:53:42.929Z,38.40
2023-02-11T17:55:44.678Z,41.37
2023-02-11T17:57:46.336Z,37.67
2023-02-11T17:59:50.135Z,34.73
2023-02-11T18:01:52.768Z,40.87
2023-02-11T18:03:54.519Z,39.40
2023-02-11T18:06:00.489Z,40.57
2023-02-11T18:08:05.962Z,38.97
2023-02-11T18:10:08.839Z,35.60
2023-02-11T18:12:12.932Z,37.50
2023-02-11T18:14:14.598Z,39.17
2023-02-11T18:16:18.397Z,35.60
2023-02-11T18:18:20.103Z,38.67
2023-02-11T18:20:21.898Z,33.03
2023-02-11T18:22:25.937Z,40.30
2023-02-11T18:24:27.754Z,33.87
2023-02-11T18:26:31.867Z,36.43
2023-02-11T18:28:33.696Z,35.10
2023-02-11T18:30:35.489Z,36.87
2023-02-11T18:32:38.613Z,37.53
2023-02-11T18:34:43.168Z,35.03
2023-02-11T18:36:44.852Z,37.23
2023-02-11T18:38:46.659Z,38.47
2023-02-11T18:40:50.388Z,37.63
2023-02-11T18:42:52.031Z,35.27
2023-02-11T18:44:54.363Z,31.67
2023-02-11T18:46:56.070Z,33.33
2023-02-11T18:48:57.818Z,31.77
2023-02-11T18:50:59.481Z,35.53
2023-02-11T18:53:01.176Z,32.90
2023-02-11T18:55:04.428Z,33.37
2023-02-11T18:57:06.112Z,32.97
2023-02-11T18:59:10.210Z,33.43
2023-02-11T19:01:26.730Z,36.50
2023-02-11T19:03:28.472Z,31.83
2023-02-11T19:05:33.362Z,34.10
2023-02-11T19:07:35.125Z,31.80
2023-02-11T19:09:39.394Z,34.47
2023-02-11T19:11:47.133Z,33.17
2023-02-11T19:13:49.076Z,33.07
2023-02-11T19:15:51.340Z,32.10
2023-02-11T19:17:53.641Z,36.47
2023-02-11T19:19:55.368Z,32.07
2023-02-11T19:21:58.244Z,33.50
2023-02-11T19:24:00.805Z,32.33
2023-02-11T19:26:04.472Z,33.30
2023-02-11T19:28:06.225Z,29.90
2023-02-11T19:30:09.278Z,26.70
2023-02-11T19:32:11.364Z,31.37
2023-02-11T19:34:17.060Z,28.20
2023-02-11T19:36:21.304Z,30.80
2023-02-11T19:38:27.546Z,29.67
2023-02-11T19:40:29.614Z,31.90
2023-02-11T19:42:31.258Z,30.10
2023-02-11T19:44:35.297Z,30.73
2023-02-11T19:46:40.776Z,29.37
2023-02-11T19:48:42.546Z,32.97
2023-02-11T19:50:44.271Z,32.93
2023-02-11T19:52:45.972Z,30.27
2023-02-11T19:54:47.883Z,30.10
2023-02-11T19:56:49.640Z,26.87
2023-02-11T19:58:51.393Z,31.67
2023-02-11T20:00:53.464Z,28.70
2023-02-11T20:02:55.483Z,27.93
2023-02-11T20:04:57.410Z,29.40
2023-02-11T20:06:59.300Z,27.37
2023-02-11T20:09:06.814Z,28.57
2023-02-11T20:11:18.591Z,27.37
2023-02-11T20:13:23.025Z,26.60
2023-02-11T20:15:29.445Z,25.80
2023-02-11T20:17:31.164Z,27.33
2023-02-11T20:19:32.966Z,25.27
2023-02-11T20:21:34.657Z,28.07
2023-02-11T20:23:38.235Z,26.83
2023-02-11T20:25:40.247Z,28.33
2023-02-11T20:27:41.956Z,28.97
2023-02-11T20:29:43.615Z,32.13
2023-02-11T20:31:45.789Z,27.07
2023-02-11T20:33:48.549Z,28.43
2023-02-11T20:36:19.365Z,26.37
2023-02-11T20:38:21.134Z,23.87
2023-02-11T20:40:22.868Z,29.23
2023-02-11T20:42:27.550Z,29.00
2023-02-11T20:44:29.442Z,30.97
2023-02-11T20:46:33.168Z,26.87
2023-02-11T20:48:35.248Z,29.47
2023-02-11T20:50:36.976Z,27.83
2023-02-11T20:52:38.823Z,30.57
2023-02-11T20:54:40.588Z,32.40
2023-02-11T20:56:42.787Z,32.13
2023-02-11T20:58:45.059Z,29.43
2023-02-11T21:00:46.732Z,32.03
2023-02-11T21:02:52.466Z,31.47
2023-02-11T21:04:54.187Z,29.47
2023-02-11T21:06:59.076Z,28.60
2023-02-11T21:09:03.960Z,33.13
2023-02-11T21:11:09.344Z,31.33
2023-02-11T21:13:14.352Z,35.30
2023-02-11T21:15:16.252Z,30.87
2023-02-11T21:17:20.315Z,34.83
2023-02-11T21:19:22.091Z,30.40
2023-02-11T21:21:24.348Z,29.10
2023-02-11T21:23:31.587Z,33.57
2023-02-11T21:25:33.328Z,30.00
2023-02-11T21:27:35.131Z,32.47
2023-02-11T21:29:52.659Z,30.00
2023-02-11T21:31:55.457Z,29.67
2023-02-11T21:34:01.829Z,32.93
2023-02-11T21:36:07.646Z,29.93
2023-02-11T21:38:09.751Z,30.03
2023-02-11T21:40:11.840Z,30.57
2023-02-11T21:42:16.112Z,28.27
2023-02-11T21:44:18.615Z,28.13
2023-02-11T21:46:24.686Z,29.87
2023-02-11T21:48:27.855Z,28.73
2023-02-11T21:50:29.921Z,28.83
2023-02-11T21:52:31.644Z,29.90
2023-02-11T21:54:33.481Z,29.60
2023-02-11T21:56:38.213Z,29.57
2023-02-11T21:58:42.677Z,31.97
2023-02-11T22:00:44.423Z,31.40
2023-02-11T22:02:48.260Z,29.17
2023-02-11T22:04:51.751Z,30.43
2023-02-11T22:06:53.768Z,29.47
2023-02-11T22:08:55.486Z,26.07
2023-02-11T22:11:08.714Z,28.63
2023-02-11T22:13:10.448Z,34.03
2023-02-11T22:15:12.206Z,30.97
2023-02-11T22:17:14.255Z,30.20
2023-02-11T22:19:15.976Z,32.30
2023-02-11T22:21:20.376Z,33.43
2023-02-11T22:23:22.002Z,34.97
2023-02-11T22:25:23.713Z,32.43
2023-02-11T22:27:25.533Z,31.67
2023-02-11T22:29:27.218Z,29.67
2023-02-11T22:31:31.627Z,30.00
2023-02-11T22:33:33.630Z,27.53
2023-02-11T22:35:35.351Z,29.27
2023-02-11T22:37:37.424Z,32.40
2023-02-11T22:39:39.123Z,28.43
2023-02-11T22:41:42.319Z,29.13
2023-02-11T22:43:44.463Z,30.27
2023-02-11T22:45:46.157Z,29.47
2023-02-11T22:47:48.240Z,29.53
2023-02-11T22:49:49.961Z,31.80
2023-02-11T22:51:51.765Z,33.13
2023-02-11T22:53:56.964Z,37.13
2023-02-11T22:56:04.516Z,31.03
2023-02-11T22:58:06.904Z,34.57
2023-02-11T23:00:10.209Z,34.60
2023-02-11T23:02:12.145Z,31.37
2023-02-11T23:04:15.986Z,32.07
2023-02-11T23:06:17.780Z,27.93
2023-02-11T23:08:19.502Z,28.07
2023-02-11T23:10:23.957Z,30.87
2023-02-11T23:12:26.860Z,29.93
2023-02-11T23:14:29.204Z,28.47
2023-02-11T23:16:36.230Z,31.40
2023-02-11T23:18:43.280Z,32.00
2023-02-11T23:20:45.067Z,31.47
2023-02-11T23:22:46.823Z,30.60
2023-02-11T23:24:48.505Z,32.53
2023-02-11T23:26:50.349Z,33.93
2023-02-11T23:28:52.416Z,30.83
2023-02-11T23:30:54.299Z,34.63
2023-02-11T23:32:58.187Z,31.67
2023-02-11T23:35:05.688Z,33.03
2023-02-11T23:37:07.472Z,31.13
2023-02-11T23:39:10.364Z,29.43
2023-02-11T23:41:12.825Z,29.43
2023-02-11T23:43:14.523Z,34.90
2023-02-11T23:45:20.907Z,28.47
2023-02-11T23:47:22.690Z,26.77
2023-02-11T23:49:24.584Z,29.13
2023-02-11T23:51:26.386Z,31.60
2023-02-11T23:53:28.152Z,28.67
2023-02-11T23:55:29.860Z,31.20
2023-02-11T23:57:32.769Z,27.90
2023-02-11T23:59:34.480Z,29.57
